Meteoblue:





Windguru:








TAF EPZG

 

METAR EPZG

EPZG 211500Z 23004KT 2200 BR OVC003 01/01 Q1032

Location: EPZG
ZIELONA GORA - POLAND
Latitude: 52°08'19"N - Longitude: 015°47'55"E.
Magnetic declination: 4.31°E
Sunrise: 06:52 UTC
Sunset: 15:25 UTC
Report emitted the day: 21, time 15:00 UTC
Saturday 21 January 2017 16:00 local time.
Wind: True direction = 230 degrees, speed: 4 knots (7 km/h) (2 m/s).
Runway 06, length 8202 feet, altitude 194 feet: Cross Wind 1 KT Right - Centerline Wind 4 KT rear.
Runway 24, length 8202 feet, altitude 187 feet: Cross Wind 1 KT Left - Centerline Wind 4 KT front.
Minimum horizontal visibility: 2200 m.
Weather: Mist .
Clouds: Overcast sky (8 oktas), at 300 feet above aerodrome level (91 meters).
Temperature: 1 degrees Celsius (34 Fahrenheit). Dewpoint: 1 degrees Celsius (34 Fahrenheit). Relative humidity 100 %. Wind Chill: -1 degrees Celsius (30 Fahrenheit).
QNH (Sea-level pressure): 1032 hPa (30.47 inches).
0:23
Metar reliability - Emission time in hours and minutes
NOAA
Low Instrument Flight Rules
4 KT
Wind
1/1
Temperature / Dewpoint
2200
Minimum horizontal visibility
 
Mist
300
Overcast sky (8 oktas)
1032
Sea level pressure
4.31°E
Magnetic declination
06:52 Z
Sunrise
15:25 Z
Sunset
Map
Show on Google Maps